Map

Track Data

SID SEASON NUMBER BASIN SUBBASIN NAME ISO_TIME NATURE LAT LON WMO_WIND WMO_PRES WMO_AGENCY TRACK_TYPE DIST2LAND LANDFALL IFLAG USA_AGENCY USA_ATCF_ID USA_LAT USA_LON USA_RECORD USA_STATUS USA_WIND USA_PRES USA_SSHS USA_R34_NE USA_R34_SE USA_R34_SW USA_R34_NW USA_R50_NE USA_R50_SE USA_R50_SW USA_R50_NW USA_R64_NE USA_R64_SE USA_R64_SW USA_R64_NW USA_POCI USA_ROCI USA_RMW USA_EYE TOKYO_LAT TOKYO_LON TOKYO_GRADE TOKYO_WIND TOKYO_PRES TOKYO_R50_DIR TOKYO_R50_LONG TOKYO_R50_SHORT TOKYO_R30_DIR TOKYO_R30_LONG TOKYO_R30_SHORT TOKYO_LAND CMA_LAT CMA_LON CMA_CAT CMA_WIND CMA_PRES HKO_LAT HKO_LON HKO_CAT HKO_WIND HKO_PRES NEWDELHI_LAT NEWDELHI_LON NEWDELHI_GRADE NEWDELHI_WIND NEWDELHI_PRES NEWDELHI_CI NEWDELHI_DP NEWDELHI_POCI REUNION_LAT REUNION_LON REUNION_TYPE REUNION_WIND REUNION_PRES REUNION_TNUM REUNION_CI REUNION_RMW REUNION_R34_NE REUNION_R34_SE REUNION_R34_SW REUNION_R34_NW REUNION_R50_NE REUNION_R50_SE REUNION_R50_SW REUNION_R50_NW REUNION_R64_NE REUNION_R64_SE REUNION_R64_SW REUNION_R64_NW BOM_LAT BOM_LON BOM_TYPE BOM_WIND BOM_PRES BOM_TNUM BOM_CI BOM_RMW BOM_R34_NE BOM_R34_SE BOM_R34_SW BOM_R34_NW BOM_R50_NE BOM_R50_SE BOM_R50_SW BOM_R50_NW BOM_R64_NE BOM_R64_SE BOM_R64_SW BOM_R64_NW BOM_ROCI BOM_POCI BOM_EYE BOM_POS_METHOD BOM_PRES_METHOD NADI_LAT NADI_LON NADI_CAT NADI_WIND NADI_PRES WELLINGTON_LAT WELLINGTON_LON WELLINGTON_WIND WELLINGTON_PRES DS824_LAT DS824_LON DS824_STAGE DS824_WIND DS824_PRES TD9636_LAT TD9636_LON TD9636_STAGE TD9636_WIND TD9636_PRES TD9635_LAT TD9635_LON TD9635_WIND TD9635_PRES TD9635_ROCI NEUMANN_LAT NEUMANN_LON NEUMANN_CLASS NEUMANN_WIND NEUMANN_PRES MLC_LAT MLC_LON MLC_CLASS MLC_WIND MLC_PRES USA_GUST BOM_GUST BOM_GUST_PER REUNION_GUST REUNION_GUST_PER USA_SEAHGT USA_SEARAD_NE USA_SEARAD_SE USA_SEARAD_SW USA_SEARAD_NW STORM_SPEED STORM_DIR
1996208N20165 1996 56 WP MM JOY 1996-07-25 12:00:00 NR 19.6000 165.200 main 2941 2924 O_____________ jtwc_wp WP121996 19.6000 165.200 10 -1 6 260
1996208N20165 1996 56 WP MM JOY 1996-07-25 15:00:00 NR 19.5526 164.902 main 2924 2898 P_____________ WP121996 19.5526 164.902 10 -1 6 260
1996208N20165 1996 56 WP MM JOY 1996-07-25 18:00:00 NR 19.5000 164.600 main 2898 2873 O_____________ jtwc_wp WP121996 19.5000 164.600 10 -1 6 259
1996208N20165 1996 56 WP MM JOY 1996-07-25 21:00:00 NR 19.4425 164.292 main 2873 2857 P_____________ WP121996 19.4425 164.292 10 -1 6 260
1996208N20165 1996 56 WP MM JOY 1996-07-26 00:00:00 NR 19.4000 164.000 main 2857 2846 O_____________ jtwc_wp WP121996 19.4000 164.000 10 -1 5 264
1996208N20165 1996 56 WP MM JOY 1996-07-26 03:00:00 NR 19.3924 163.743 main 2841 2831 P_____________ WP121996 19.3924 163.743 10 -1 5 270
1996208N20165 1996 56 WP MM JOY 1996-07-26 06:00:00 NR 19.4000 163.500 main 2831 2821 O_____________ jtwc_wp WP121996 19.4000 163.500 10 -1 5 271
1996208N20165 1996 56 WP MM JOY 1996-07-26 09:00:00 NR 19.3999 163.258 main 2821 2806 P_____________ WP121996 19.3999 163.258 12 -1 5 270
1996208N20165 1996 56 WP MM JOY 1996-07-26 12:00:00 NR 19.4000 163.000 main 2806 2791 O_____________ jtwc_wp WP121996 19.4000 163.000 15 -1 5 268
1996208N20165 1996 56 WP MM JOY 1996-07-26 15:00:00 NR 19.3849 162.715 main 2791 2776 P_____________ WP121996 19.3849 162.715 15 -1 6 270
1996208N20165 1996 56 WP MM JOY 1996-07-26 18:00:00 NR 19.4000 162.400 main 2776 2749 O_____________ jtwc_wp WP121996 19.4000 162.400 15 -1 6 278
1996208N20165 1996 56 WP MM JOY 1996-07-26 21:00:00 NR 19.4698 162.080 main 2749 2712 P_____________ WP121996 19.4698 162.080 15 -1 7 287
1996208N20165 1996 56 WP MM JOY 1996-07-27 00:00:00 NR 19.6000 161.700 main 2712 2660 O_____________ jtwc_wp WP121996 19.6000 161.700 15 -1 9 290
1996208N20165 1996 56 WP MM JOY 1996-07-27 03:00:00 NR 19.7701 161.215 main 2660 2607 P_____________ WP121996 19.7701 161.215 15 -1 10 293
1996208N20165 1996 56 WP MM JOY 1996-07-27 06:00:00 NR 20.0000 160.700 main 2607 2554 O_____________ jtwc_wp WP121996 20.0000 160.700 15 -1 10 299
1996208N20165 1996 56 WP MM JOY 1996-07-27 09:00:00 NR 20.2698 160.250 main 2547 2494 P_____________ WP121996 20.2698 160.250 15 -1 10 305
1996208N20165 1996 56 WP MM JOY 1996-07-27 12:00:00 NR 20.6000 159.800 main 2494 2426 O_____________ jtwc_wp WP121996 20.6000 159.800 15 -1 11 309
1996208N20165 1996 56 WP MM JOY 1996-07-27 15:00:00 NR 20.9774 159.307 main 2426 2358 P_____________ WP121996 20.9774 159.307 15 -1 12 311
1996208N20165 1996 56 WP MM JOY 1996-07-27 18:00:00 NR 21.4000 158.800 main 2358 2290 O_____________ jtwc_wp WP121996 21.4000 158.800 15 -1 13 313
1996208N20165 1996 56 WP MM JOY 1996-07-27 21:00:00 NR 21.8499 158.292 main 2290 2214 P_____________ WP121996 21.8499 158.292 15 -1 13 314
1996208N20165 1996 56 WP MM JOY 1996-07-28 00:00:00 NR 22.3000 157.800 main 2214 2153 O_____________ jtwc_wp WP121996 22.3000 157.800 15 -1 12 314
1996208N20165 1996 56 WP MM JOY 1996-07-28 03:00:00 NR 22.6997 157.349 main 2146 2085 P_____________ WP121996 22.6997 157.349 15 -1 12 314
1996208N20165 1996 56 WP MM JOY 1996-07-28 06:00:00 NR 23.1000 156.900 main 2085 2018 O_____________ jtwc_wp WP121996 23.1000 156.900 15 -1 12 315
1996208N20165 1996 56 WP MM JOY 1996-07-28 09:00:00 NR 23.5498 156.415 main 2018 1942 P_____________ WP121996 23.5498 156.415 15 -1 13 314
1996208N20165 1996 56 WP MM JOY 1996-07-28 12:00:00 NR 24.0000 155.900 main 1942 1875 O_____________ jtwc_wp WP121996 24.0000 155.900 15 -1 13 311
1996208N20165 1996 56 WP MM JOY 1996-07-28 15:00:00 NR 24.3925 155.342 main 1868 1801 P_____________ WP121996 24.3925 155.342 17 -1 13 309
1996208N20165 1996 56 WP MM JOY 1996-07-28 18:00:00 NR 24.8000 154.800 main 1801 1725 O_____________ jtwc_wp WP121996 24.8000 154.800 20 -1 13 314
1996208N20165 1996 56 WP MM JOY 1996-07-28 21:00:00 NR 25.2924 154.305 main 1725 1658 P_____________ WP121996 25.2924 154.305 20 -1 13 321
1996208N20165 1996 56 WP MM JOY 1996-07-29 00:00:00 NR 25.8000 153.900 main 1658 1597 O_____________ jtwc_wp WP121996 25.8000 153.900 20 -1 12 329
1996208N20165 1996 56 WP MM JOY 1996-07-29 03:00:00 NR 26.3022 153.620 main 1597 1552 P_____________ WP121996 26.3022 153.620 22 -1 10 334
1996208N20165 1996 56 WP MM JOY 1996-07-29 06:00:00 NR 26.7000 153.400 main 1552 1522 O_____________ jtwc_wp WP121996 26.7000 153.400 25 -1 8 327
1996208N20165 1996 56 WP MM JOY 1996-07-29 09:00:00 NR 26.9324 153.157 main 1522 1493 P_____________ WP121996 26.9324 153.157 27 -1 5 304
1996208N20165 1996 56 WP MM JOY 1996-07-29 12:00:00 NR 27.0000 152.900 main 1493 1471 O_____________ jtwc_wp WP121996 27.0000 152.900 30 -1 5 272
1996208N20165 1996 56 WP MM JOY 1996-07-29 15:00:00 NR 26.9526 152.570 main 1471 1465 P_____________ WP121996 26.9526 152.570 32 -1 6 250
1996208N20165 1996 56 WP MM JOY 1996-07-29 18:00:00 NR 26.8000 152.300 main 1466 1466 O_____________ jtwc_wp WP121996 26.8000 152.300 35 0 5 224
1996208N20165 1996 56 WP MM JOY 1996-07-29 21:00:00 NR 26.5999 152.183 main 1475 1475 P_____________ WP121996 26.5999 152.183 35 0 4 192
1996208N20165 1996 56 WP MM JOY 1996-07-30 00:00:00 NR 26.4000 152.200 main 1491 1491 O_____________ jtwc_wp WP121996 26.4000 152.200 35 0 4 159
1996208N20165 1996 56 WP MM JOY 1996-07-30 03:00:00 NR 26.2701 152.328 main 1506 1506 P_____________ WP121996 26.2701 152.328 35 0 9 112
1996208N20165 1996 56 WP MM JOY 1996-07-30 06:00:00 TS 26.0571 153.129 1012 tokyo main 1577 1577 OOOO__________ jtwc_wp WP121996 26.2000 152.500 35 0 25.8000 154.300 2 1012 0 0 0 25.8000 154.200 0 19 1008 26.0000 153.400 TD 25 1006 10 103
1996208N20165 1996 56 WP MM JOY 1996-07-30 09:00:00 TS 26.0410 153.391 main 1606 1598 PPPP__________ WP121996 26.1775 152.600 35 0 25.8300 154.262 2 1011 0 0 25.8700 154.095 0 19 1008 26.1500 153.400 TD 25 1006 3 82
1996208N20165 1996 56 WP MM JOY 1996-07-30 12:00:00 TS 26.1077 153.508 1010 tokyo main 1606 1598 OOOO__________ jtwc_wp WP121996 26.2000 152.700 35 0 25.9000 154.200 2 1010 0 0 0 26.0000 154.000 0 19 1008 26.3000 153.400 TD 25 1006 3 39
1996208N20165 1996 56 WP MM JOY 1996-07-30 15:00:00 TS 26.2350 153.569 main 1605 1589 PPPP__________ WP121996 26.2275 152.850 35 0 26.0350 154.100 2 1009 0 0 26.2275 153.928 0 21 1008 26.4500 153.400 TD 25 1006 3 12
1996208N20165 1996 56 WP MM JOY 1996-07-30 18:00:00 TS 26.4000 153.575 1008 tokyo main 1589 1574 OOOO__________ jtwc_wp WP121996 26.3000 153.000 35 0 26.2000 154.000 2 1008 0 0 0 26.5000 153.900 1 23 1008 26.6000 153.400 TD 25 1006 3 7
1996208N20165 1996 56 WP MM JOY 1996-07-30 21:00:00 TS 26.5656 153.602 main 1574 1566 PPPP__________ WP121996 26.4350 153.130 35 0 26.3425 153.928 2 1008 0 0 26.7500 153.942 1 23 1008 26.7350 153.407 TD 27 1004 4 6
1996208N20165 1996 56 WP MM JOY 1996-07-31 00:00:00 TS 26.7500 153.625 1008 tokyo main 1559 1551 OOOO__________ jtwc_wp WP121996 26.6000 153.200 35 0 26.5000 153.900 2 1008 0 0 0 27.0000 154.000 1 23 1008 26.9000 153.400 TD 30 1002 4 0
1996208N20165 1996 56 WP MM JOY 1996-07-31 03:00:00 TS 26.9494 153.631 main 1551 1529 PPPP__________ WP121996 26.7275 153.180 37 0 26.6850 153.942 2 1008 0 0 27.2500 154.037 1 23 1007 27.1350 153.365 TD 30 1002 4 0
1996208N20165 1996 56 WP MM JOY 1996-07-31 06:00:00 TS 27.1750 153.600 1008 tokyo main 1529 1507 OOOO__________ jtwc_wp WP121996 26.9000 153.100 40 0 26.9000 154.000 2 1008 0 0 0 27.5000 154.000 1 23 1006 27.4000 153.300 TD 30 1002 5 349
1996208N20165 1996 56 WP MM JOY 1996-07-31 09:00:00 TS 27.4262 153.524 main 1507 1477 PPPP__________ WP121996 27.1700 153.015 42 0 27.1350 154.030 2 1008 0 0 27.7500 153.845 1 26 1005 27.6500 153.208 TD 32 1001 6 341
1996208N20165 1996 56 WP MM JOY 1996-07-31 12:00:00 TS 27.7000 153.400 1008 tokyo main 1477 1448 OOOO__________ jtwc_wp WP121996 27.5000 152.900 45 0 27.4000 154.000 2 1008 0 0 0 28.0000 153.600 1 29 1004 27.9000 153.100 TS 35 1000 6 336
1996208N20165 1996 56 WP MM JOY 1996-07-31 15:00:00 TS 27.9912 153.244 main 1441 1412 PPPP__________ WP121996 27.8500 152.758 47 0 27.7074 153.895 2 1007 0 0 28.2575 153.315 1 29 1003 28.1500 153.007 TS 37 998 7 332
1996208N20165 1996 56 WP MM JOY 1996-07-31 18:00:00 TS 28.2750 153.050 1006 tokyo main 1412 1375 OOOO__________ jtwc_wp WP121996 28.2000 152.600 50 0 28.0000 153.700 2 1006 0 0 0 28.5000 153.000 1 29 1002 28.4000 152.900 TS 40 996 6 325
1996208N20165 1996 56 WP MM JOY 1996-07-31 21:00:00 TS 28.5106 152.830 main 1375 1346 PPPP__________ WP121996 28.5000 152.450 52 0 28.2075 153.430 2 1005 0 0 28.6926 152.677 1 31 1000 28.6425 152.765 TS 42 993 6 320
1996208N20165 1996 56 WP MM JOY 1996-08-01 00:00:00 TS 28.7500 152.600 35 1004 tokyo main 1339 1310 OOOO__________ jtwc_wp WP121996 28.8000 152.300 55 0 28.4000 153.100 3 35 1004 0 9 90 90 0 28.9000 152.400 2 34 998 28.9000 152.600 TS 45 990 7 323
1996208N20165 1996 56 WP MM JOY 1996-08-01 03:00:00 TS 29.0388 152.371 main 1310 1274 PPPP__________ WP121996 29.1425 152.135 60 0 28.6352 152.728 3 35 1001 0 9 90 90 29.1849 152.220 2 36 996 29.1925 152.400 TS 47 987 7 328
1996208N20165 1996 56 WP MM JOY 1996-08-01 06:00:00 TS 29.3500 152.175 35 998 tokyo main 1267 1232 OOOO__________ jtwc_wp WP121996 29.5000 152.000 65 1 28.9000 152.400 3 35 998 0 9 90 90 0 29.5000 152.100 2 38 995 29.5000 152.200 STS 50 985 7 335
1996208N20165 1996 56 WP MM JOY 1996-08-01 09:00:00 TS 29.6681 152.042 main 1232 1213 PPPP__________ WP121996 29.8650 151.927 67 1 29.1849 152.212 3 35 998 0 9 90 90 29.8150 151.992 2 38 995 29.8075 152.035 STS 50 985 7 343
1996208N20165 1996 56 WP MM JOY 1996-08-01 12:00:00 TS 29.9750 151.950 35 998 tokyo main 1213 1192 OOOO__________ jtwc_wp WP121996 30.2000 151.900 70 1 29.5000 152.100 3 35 998 0 9 90 90 0 30.1000 151.900 2 38 995 30.1000 151.900 STS 50 985 6 345
1996208N20165 1996 56 WP MM JOY 1996-08-01 15:00:00 TS 30.2525 151.856 main 1186 1166 PPPP__________ WP121996 30.4725 151.885 72 1 29.8800 151.993 3 35 998 0 9 90 90 30.3000 151.770 2 38 995 30.3575 151.777 STS 50 985 5 346
1996208N20165 1996 56 WP MM JOY 1996-08-01 18:00:00 TS 30.5000 151.800 35 998 tokyo main 1166 1154 OOOO__________ jtwc_wp WP121996 30.7000 151.900 75 1 30.2000 151.900 3 35 998 0 9 90 90 0 30.5000 151.700 2 38 995 30.6000 151.700 STS 50 985 5 351
1996208N20165 1996 56 WP MM JOY 1996-08-01 21:00:00 TS 30.7087 151.773 main 1154 1142 PPPP__________ WP121996 30.9074 151.920 75 1 30.3000 151.763 3 35 998 0 9 90 90 30.7775 151.755 2 38 995 30.8499 151.655 STS 50 985 4 0
1996208N20165 1996 56 WP MM JOY 1996-08-02 00:00:00 TS 30.9250 151.825 35 998 tokyo main 1142 1134 OOOO__________ jtwc_wp WP121996 31.1000 152.000 75 1 30.4000 151.700 3 35 998 0 9 90 90 0 31.1000 151.900 2 38 995 31.1000 151.700 STS 50 985 5 19
1996208N20165 1996 56 WP MM JOY 1996-08-02 03:00:00 TS 31.2181 151.973 main 1142 1137 PPPP__________ WP121996 31.3075 152.162 75 1 30.7200 151.812 3 37 997 0 9 105 105 31.4799 152.062 2 43 992 31.3650 151.855 STS 52 982 7 29
1996208N20165 1996 56 WP MM JOY 1996-08-02 06:00:00 TS 31.5000 152.200 40 996 tokyo main 1143 1143 OOOO__________ jtwc_wp WP121996 31.5000 152.400 75 1 31.1000 152.000 3 40 996 0 9 120 120 0 31.8000 152.300 3 48 990 31.6000 152.100 STS 55 980 6 40
1996208N20165 1996 56 WP MM JOY 1996-08-02 09:00:00 TS 31.7012 152.451 main 1159 1154 PPPP__________ WP121996 31.6725 152.685 75 1 31.4224 152.128 3 45 990 0 9 135 135 31.9375 152.620 3 48 987 31.7724 152.370 STS 55 980 6 53
1996208N20165 1996 56 WP MM JOY 1996-08-02 12:00:00 TS 31.8500 152.750 50 985 tokyo main 1175 1175 OOOO__________ jtwc_wp WP121996 31.8000 153.000 75 1 31.7000 152.300 4 50 985 0 9 150 150 0 32.0000 153.000 3 48 985 31.9000 152.700 STS 55 980 6 62
1996208N20165 1996 56 WP MM JOY 1996-08-02 15:00:00 TS 31.9850 153.087 main 1196 1196 PPPP__________ WP121996 31.8649 153.300 75 1 31.9374 152.555 4 50 982 0 9 150 150 32.1151 153.407 3 48 985 32.0225 153.085 STS 55 980 6 69
1996208N20165 1996 56 WP MM JOY 1996-08-02 18:00:00 TS 32.0750 153.450 50 980 tokyo main 1226 1226 OOOO__________ jtwc_wp WP121996 31.9000 153.600 75 1 32.1000 152.900 4 50 980 0 9 150 150 0 32.2000 153.800 3 48 985 32.1000 153.500 STS 55 980 6 78
1996208N20165 1996 56 WP MM JOY 1996-08-02 21:00:00 TS 32.1168 153.813 main 1252 1252 PPPP__________ WP121996 31.9574 153.892 72 1 32.1877 153.343 4 50 980 0 9 150 150 32.1923 154.108 3 48 985 32.1299 153.908 STS 55 980 6 85
1996208N20165 1996 56 WP MM JOY 1996-08-03 00:00:00 TS 32.1250 154.175 50 980 tokyo main 1287 1287 OOOO__________ jtwc_wp WP121996 32.0000 154.200 70 1 32.2000 153.800 4 50 980 0 9 150 150 0 32.2000 154.400 3 48 985 32.1000 154.300 STS 55 980 6 90
1996208N20165 1996 56 WP MM JOY 1996-08-03 03:00:00 TS 32.1194 154.544 main 1314 1314 PPPP__________ WP121996 31.9927 154.580 70 1 32.1423 154.173 4 52 980 0 9 195 195 32.3501 154.757 3 48 985 31.9924 154.665 STS 55 980 6 90
1996208N20165 1996 56 WP MM JOY 1996-08-03 06:00:00 TS 32.1250 154.875 55 980 tokyo main 1349 1349 OOOO__________ jtwc_wp WP121996 32.0000 154.900 70 1 32.1000 154.500 4 55 980 9 40 40 9 240 240 0 32.5000 155.100 3 48 985 31.9000 155.000 STS 55 980 5 85
1996208N20165 1996 56 WP MM JOY 1996-08-03 09:00:00 TS 32.1668 155.156 main 1371 1371 PPPP__________ WP121996 32.0848 155.038 67 1 32.1700 154.822 4 52 982 9 9 240 240 32.5150 155.403 3 46 987 31.8976 155.360 STS 55 980 4 73
1996208N20165 1996 56 WP MM JOY 1996-08-03 12:00:00 TS 32.2500 155.350 50 985 tokyo main 1385 1381 OOOO__________ jtwc_wp WP121996 32.2000 155.100 65 1 32.3000 155.100 4 50 985 0 9 240 240 0 32.5000 155.600 2 44 990 32.0000 155.600 STS 55 980 3 50
1996208N20165 1996 56 WP MM JOY 1996-08-03 15:00:00 TS 32.3762 155.456 main 1390 1386 PPPP__________ WP121996 32.2925 155.215 62 0 32.4575 155.337 4 47 987 0 9 195 195 32.5274 155.660 2 44 990 32.2274 155.610 STS 52 982 3 20
1996208N20165 1996 56 WP MM JOY 1996-08-03 18:00:00 TS 32.5250 155.475 45 990 tokyo main 1386 1383 OOOO__________ jtwc_wp WP121996 32.4000 155.300 60 0 32.6000 155.500 3 45 990 0 9 150 150 0 32.6000 155.600 2 44 990 32.5000 155.500 STS 50 985 3 0
1996208N20165 1996 56 WP MM JOY 1996-08-03 21:00:00 TS 32.6569 155.453 main 1379 1367 PPPP__________ WP121996 32.5275 155.330 57 0 32.6574 155.595 3 45 990 0 9 150 150 32.7350 155.473 2 41 992 32.7075 155.415 STS 47 987 3 343
1996208N20165 1996 56 WP MM JOY 1996-08-04 00:00:00 TS 32.8000 155.375 45 990 tokyo main 1367 1351 OOOO__________ jtwc_wp WP121996 32.7000 155.300 55 0 32.7000 155.600 3 45 990 0 9 150 150 0 32.9000 155.300 2 38 995 32.9000 155.300 TS 45 990 3 332
1996208N20165 1996 56 WP MM JOY 1996-08-04 03:00:00 TS 32.9638 155.261 main 1351 1330 PPPP__________ WP121996 32.9350 155.215 50 0 32.7925 155.530 3 45 992 0 9 150 150 33.0350 155.142 2 36 996 33.0925 155.157 TS 42 992 4 329
1996208N20165 1996 56 WP MM JOY 1996-08-04 06:00:00 TS 33.1500 155.125 45 994 tokyo main 1327 1315 OOOO__________ jtwc_wp WP121996 33.2000 155.100 45 0 32.9000 155.400 3 45 994 0 9 150 150 0 33.2000 155.000 2 34 998 33.3000 155.000 TS 40 994 4 329
1996208N20165 1996 56 WP MM JOY 1996-08-04 09:00:00 TS 33.3456 154.989 main 1315 1300 PPPP__________ WP121996 33.4575 154.993 42 0 32.9775 155.257 3 42 996 0 9 150 150 33.4125 154.870 2 31 999 33.5350 154.835 TS 37 996 5 334
1996208N20165 1996 56 WP MM JOY 1996-08-04 12:00:00 TS 33.5600 154.887 40 998 tokyo main 1297 1283 OOOO__________ jtwc_wp WP121996 33.7000 154.900 40 0 33.1000 155.100 3 40 998 0 9 150 150 0 33.7000 154.800 1 29 1000 33.8000 154.700 TS 35 998 5 343
1996208N20165 1996 56 WP MM JOY 1996-08-04 15:00:00 TS 33.8146 154.819 main 1283 1276 PPPP__________ WP121996 33.9075 154.820 37 0 33.2975 154.920 3 999 0 9 34.1000 154.812 1 29 1000 34.0925 154.630 TS 32 999 5 354
1996208N20165 1996 56 WP MM JOY 1996-08-04 18:00:00 TS 34.0923 154.815 1000 tokyo main 1276 1270 OOOO__________ jtwc_wp WP121996 34.1000 154.800 35 0 33.6000 154.800 2 1000 0 0 0 34.5000 154.900 1 29 1000 34.4000 154.600 TD 30 1000 6 6
1996208N20165 1996 56 WP MM JOY 1996-08-04 21:00:00 TS 34.3616 154.891 main 1267 1258 PPP___________ WP121996 34.3075 154.870 32 -1 34.0425 154.805 2 1000 0 0 34.7348 154.998 1 26 1000 TD 6 17
1996208N20165 1996 56 WP MM JOY 1996-08-05 00:00:00 TS 34.6364 155.018 1000 tokyo main 1258 1246 OOO___________ jtwc_wp WP121996 34.5000 155.000 30 -1 34.5000 154.900 2 1000 0 0 0 35.0000 155.200 1 23 1000 5 24
1996208N20165 1996 56 WP MM JOY 1996-08-05 03:00:00 TS 34.8384 155.152 main 1252 1235 PPP___________ WP121996 34.5822 155.099 30 -1 34.7924 155.006 2 1000 0 0 35.4430 155.553 1 23 1000 5 31
1996208N20165 1996 56 WP MM JOY 1996-08-05 06:00:00 TS 35.0667 155.333 1000 tokyo main 1232 1218 OOO___________ jtwc_wp WP121996 34.8000 155.300 30 -1 35.1000 155.200 2 1000 0 0 0 36.0000 156.000 1 23 1000 7 31
1996208N20165 1996 56 WP MM JOY 1996-08-05 09:00:00 TS 35.4576 155.605 main 1216 1180 PP____________ WP121996 35.3678 155.704 27 -1 35.5475 155.505 2 1000 0 0 1 12 29
1996208N20165 1996 56 WP MM JOY 1996-08-05 12:00:00 TS 36.1000 156.050 1000 tokyo main 1184 1140 OO____________ jtwc_wp WP121996 36.1000 156.200 25 -1 36.1000 155.900 2 1000 0 0 0 15 30
1996208N20165 1996 56 WP MM JOY 1996-08-05 15:00:00 TS 36.7451 156.508 main 1140 1089 PP____________ WP121996 36.7850 156.665 25 -1 36.7052 156.350 2 1000 0 0 15 28
1996208N20165 1996 56 WP MM JOY 1996-08-05 18:00:00 TS 37.4429 156.929 1000 tokyo main 1089 1037 OO____________ jtwc_wp WP121996 37.5000 157.100 25 -1 37.4000 156.800 2 1000 0 0 0 15 23
1996208N20165 1996 56 WP MM JOY 1996-08-05 21:00:00 TS 38.1591 157.268 main 1033 981 PP____________ WP121996 38.2426 157.469 22 -1 38.1173 157.167 2 1000 0 0 16 18
1996208N20165 1996 56 WP MM JOY 1996-08-06 00:00:00 TS 39.0000 157.560 1000 tokyo main 977 901 OO____________ jtwc_wp WP121996 39.0000 157.800 20 -1 39.0000 157.500 2 1000 0 0 0 20 13
1996208N20165 1996 56 WP MM JOY 1996-08-06 03:00:00 TS 40.1023 157.823 main 893 820 _P____________ WP121996 -1 40.1023 157.823 2 1000 0 0 25 12
1996208N20165 1996 56 WP MM JOY 1996-08-06 06:00:00 TS 41.4000 158.200 1000 tokyo main 812 762 _O____________ -1 41.4000 158.200 2 1000 0 0 0 27 14
1996208N20165 1996 56 WP MM JOY 1996-08-06 09:00:00 TS 42.6776 158.684 main 757 707 _P____________ -1 42.6776 158.684 2 1000 0 0 30 16
1996208N20165 1996 56 WP MM JOY 1996-08-06 12:00:00 ET 44.3000 159.300 1000 tokyo main 697 518 _O____________ -1 44.3000 159.300 6 1000 0 0 0 39 15
1996208N20165 1996 56 WP MM JOY 1996-08-06 15:00:00 ET 46.4840 160.077 main 513 367 _P____________ -1 46.4840 160.077 6 1004 0 0 48 14
1996208N20165 1996 56 WP MM JOY 1996-08-06 18:00:00 ET 49.0000 161.000 1008 tokyo main 362 _O____________ -1 49.0000 161.000 6 1008 0 0 0 52 14

Digital Typhoon Data and Search

About IBTrACS Database

This database is a web-friendly format of International Best Track Archive for Climate Stewardship (IBTrACS), a global best track data archive curated by NOAA dating back to 1842.

Updated: 2021-12-03